Old Saybrook, CT

10:00 PM EST on November 20, 2014 (GMT -0500)
East Hampton | Change Station
CLOSE
Current Station
Airport
Location: East Hampton,
Elevation: 56 ft
Nearby Weather Stations

Elev 56 ft 40.96 °N, 72.25 °W | Updated 7 hours ago

Clear
Clear
28 °F
Feels Like 19 °F
N
12
Wind Variable Wind from West
Gusts 13 mph

Today
High -- | Low -- °F
--% Chance of Precip.
Yesterday
High -- | Low -- °F
Precip. -- in
6:43 AM 4:26 PM
Waning Crescent, 2% visible
Pressure 29.83 in
Visibility 10.0 miles
Clouds Clear
Windchill 19 °F
Dew Point 12 °F
Humidity 51%
Rainfall 0.00 in
Snow Depth Not available.
UV 1 out of 12
Pollen .10 out of 12
Air Quality Not available.
Flu Activity Not available.
METAR KHTO 201950Z 28015KT 10SM SKC 09/M02 A2983

More Conditions Fewer Conditions

Pressure 29.83 in
Visibility 10.0 miles
Clouds Clear
Windchill 19 °F
Dew Point 12 °F
Humidity 51%
Rainfall 0.00 in
Snow Depth Not available.
UV 1 out of 12
Pollen .10 out of 12
Air Quality Not available.
Flu Activity Not available.
METAR KHTO 201950Z 28015KT 10SM SKC 09/M02 A2983

More Conditions Fewer Conditions

10-Day Weather Forecast

Almanac

Astronomy

Nov. 20, 2014 Rise Set
Actual Time
Civil Twilight
Nautical Twilight
Astronomical Twilight
Moon
Length of Visible Light
Length of Day
Tomorrow will be .
, % of the Moon is Illuminated

Today's Extremes

State Highs State Lows

Community

WunderPhotos

Upload Photos

1,772,609 photos uploaded!

WunderBlogs® & News

Nearby

Air Quality

  Air Quality AQ Index Pollutant
Not available.

Snow Depth

Station Depth Elevation

Earthquake Activity

City Distance Mag. Time & Date
Minimum magnitude displayed is 2.5.

Coastal Water Temperatures

Place Temperature

Nearby Weather Stations